Time;durP1;ratioP1;P1;durP2;ratioP2;P2;SDS_P1;SDS_P2;PMS_P1;PMS_P2;Temp;Humidity;BMP_temperature;BMP_pressure;BME280_temperature;BME280_humidity;BME280_pressure;Samples;Min_cycle;Max_cycle;Signal;HPM_P1;HPM_P2
2022/05/03 00:00:12;;;;;;;27.50;4.37;;;15.70;99.90;;;;;;5044006;28;20295;-75
2022/05/03 00:02:55;;;;;;;29.57;4.63;;;15.80;99.90;;;;;;5052453;28;20190;-75
2022/05/03 00:06:06;;;;;;;25.87;4.53;;;16.00;99.90;;;;;;5045035;28;20184;-74
2022/05/03 00:08:51;;;;;;;25.23;5.10;;;16.00;99.90;;;;;;5068488;28;20184;-74
2022/05/03 00:12:05;;;;;;;32.83;5.23;;;16.10;99.90;;;;;;5043737;28;20644;-74
2022/05/03 00:14:37;;;;;;;31.20;5.60;;;16.10;99.90;;;;;;5050707;28;20322;-74
2022/05/03 00:17:04;;;;;;;22.70;4.53;;;16.30;99.90;;;;;;5043305;28;20271;-74
2022/05/03 00:19:34;;;;;;;38.73;5.80;;;16.30;99.90;;;;;;5050089;28;20266;-74
2022/05/03 00:22:01;;;;;;;33.60;5.87;;;16.30;99.90;;;;;;5057546;28;20439;-75
2022/05/03 00:24:30;;;;;;;31.73;5.20;;;16.30;99.90;;;;;;5058955;28;20188;-75
2022/05/03 00:26:57;;;;;;;42.30;6.67;;;16.30;99.90;;;;;;5042065;28;20278;-75
2022/05/03 00:29:24;;;;;;;34.83;6.73;;;16.30;99.90;;;;;;5079876;28;20191;-75
2022/05/03 00:31:52;;;;;;;36.57;6.37;;;16.30;99.90;;;;;;5056054;28;20307;-75
2022/05/03 00:34:21;;;;;;;38.43;6.17;;;16.30;99.90;;;;;;5049414;28;20195;-74
2022/05/03 00:36:47;;;;;;;34.33;6.67;;;16.20;99.90;;;;;;5074216;28;20280;-75
2022/05/03 00:39:14;;;;;;;37.70;6.83;;;16.10;99.90;;;;;;5048960;28;20205;-75
2022/05/03 00:42:15;;;;;;;37.97;6.10;;;16.00;99.90;;;;;;5049160;28;20555;-75
2022/05/03 00:45:01;;;;;;;37.00;6.20;;;15.90;99.90;;;;;;5050800;28;20192;-75
2022/05/03 00:47:51;;;;;;;40.63;6.10;;;15.80;99.90;;;;;;5050511;28;20842;-75
2022/05/03 00:50:40;;;;;;;34.63;6.33;;;15.70;99.90;;;;;;5047648;28;20198;-75
2022/05/03 00:53:19;;;;;;;34.80;6.47;;;15.60;99.90;;;;;;5086341;28;20186;-75
2022/05/03 00:56:15;;;;;;;38.50;5.73;;;15.50;99.90;;;;;;5071336;28;20241;-75
2022/05/03 00:59:22;;;;;;;38.60;7.20;;;15.50;99.90;;;;;;5074262;28;20195;-75
2022/05/03 01:02:04;;;;;;;41.93;7.20;;;15.50;99.90;;;;;;5042690;28;20227;-75
2022/05/03 01:04:48;;;;;;;31.53;6.33;;;15.30;99.90;;;;;;5043930;28;20707;-75
2022/05/03 01:07:33;;;;;;;38.63;7.30;;;15.30;99.90;;;;;;5044987;28;20202;-75
2022/05/03 01:10:17;;;;;;;34.93;7.10;;;15.20;99.90;;;;;;5051613;28;20216;-74
2022/05/03 01:13:07;;;;;;;39.83;6.60;;;15.10;99.90;;;;;;5061724;28;20282;-75
2022/05/03 01:15:38;;;;;;;43.03;6.57;;;15.20;99.90;;;;;;5039588;28;20563;-75
2022/05/03 01:18:29;;;;;;;42.73;7.40;;;15.10;99.90;;;;;;5047059;28;20186;-75
2022/05/03 01:21:19;;;;;;;33.00;6.53;;;15.10;99.90;;;;;;5051350;28;20187;-75
2022/05/03 01:24:34;;;;;;;33.57;7.00;;;15.10;99.90;;;;;;5071442;28;20204;-75
2022/05/03 01:27:56;;;;;;;46.30;7.43;;;15.00;99.90;;;;;;5049873;28;20204;-76
2022/05/03 01:30:25;;;;;;;41.13;7.60;;;14.90;99.90;;;;;;5044440;28;20918;-75
2022/05/03 01:33:07;;;;;;;42.63;7.33;;;15.00;99.90;;;;;;5029552;28;20216;-75
2022/05/03 01:35:40;;;;;;;62.23;8.87;;;15.00;99.90;;;;;;5058031;28;20735;-75
2022/05/03 01:39:03;;;;;;;62.67;9.07;;;15.10;99.90;;;;;;5068450;28;20191;-75
2022/05/03 01:41:49;;;;;;;53.43;7.73;;;15.10;99.90;;;;;;5036022;28;20647;-75
2022/05/03 01:44:33;;;;;;;44.10;8.20;;;15.10;99.90;;;;;;5051851;28;20623;-75
2022/05/03 01:47:35;;;;;;;35.70;6.93;;;15.10;99.90;;;;;;5032626;28;20675;-75
2022/05/03 01:50:21;;;;;;;46.83;8.17;;;15.10;99.90;;;;;;5044182;28;20682;-74
2022/05/03 01:53:24;;;;;;;41.97;6.83;;;15.00;99.90;;;;;;5048783;28;20259;-75
2022/05/03 01:56:19;;;;;;;50.47;7.27;;;15.00;99.90;;;;;;5041009;28;20655;-75
2022/05/03 01:59:04;;;;;;;37.83;7.13;;;15.00;99.90;;;;;;5049779;28;20229;-75
2022/05/03 02:01:40;;;;;;;45.80;7.70;;;15.00;99.90;;;;;;5070690;28;20191;-75
2022/05/03 02:04:39;;;;;;;53.43;8.10;;;15.00;99.90;;;;;;5044524;28;20628;-75
2022/05/03 02:07:35;;;;;;;36.27;6.40;;;15.00;99.90;;;;;;5074677;28;20183;-75
2022/05/03 02:10:59;;;;;;;31.77;6.63;;;15.00;99.90;;;;;;5080132;28;20179;-75
2022/05/03 02:17:43;;;;;;;45.37;7.10;;;15.00;99.90;;;;;;5063157;28;20719;-75
2022/05/03 02:20:51;;;;;;;37.63;6.83;;;15.10;99.90;;;;;;5037822;28;20198;-74
2022/05/03 02:23:53;;;;;;;40.27;7.33;;;15.10;99.90;;;;;;5046518;28;20199;-74
2022/05/03 02:27:03;;;;;;;32.00;6.53;;;15.10;99.90;;;;;;5055582;28;20278;-75
2022/05/03 02:29:50;;;;;;;40.40;7.67;;;15.00;99.90;;;;;;5046586;28;20585;-75
2022/05/03 02:32:47;;;;;;;35.83;8.20;;;15.00;99.90;;;;;;5051480;28;20213;-74
2022/05/03 02:35:24;;;;;;;48.40;8.97;;;15.00;99.90;;;;;;5040852;28;20227;-75
2022/05/03 02:38:01;;;;;;;44.00;8.27;;;15.10;99.90;;;;;;5048161;28;20191;-75
2022/05/03 02:40:28;;;;;;;36.87;7.50;;;15.20;99.90;;;;;;5051980;28;20195;-75
2022/05/03 02:42:56;;;;;;;63.43;9.37;;;15.30;99.90;;;;;;5043582;28;20207;-75
2022/05/03 02:45:23;;;;;;;56.57;8.33;;;15.50;99.90;;;;;;5054260;28;20753;-75
2022/05/03 02:48:16;;;;;;;58.83;10.13;;;15.70;99.90;;;;;;5052110;28;20196;-75
2022/05/03 02:50:46;;;;;;;56.07;9.13;;;15.80;99.90;;;;;;5059837;28;20400;-75
2022/05/03 02:53:34;;;;;;;43.27;8.13;;;16.00;99.90;;;;;;5042548;28;20210;-75
2022/05/03 02:56:28;;;;;;;44.20;8.10;;;16.00;99.90;;;;;;5065926;28;20239;-75
2022/05/03 03:01:47;;;;;;;40.00;7.93;;;15.90;99.90;;;;;;5040524;28;20309;-75
2022/05/03 03:02:42;;;;;;;49.83;8.37;;;15.80;99.90;;;;;;5026543;28;20195;-74
2022/05/03 03:05:12;;;;;;;51.70;7.50;;;15.90;99.90;;;;;;5089080;28;20206;-74
2022/05/03 03:08:03;;;;;;;43.03;7.80;;;15.90;99.90;;;;;;5078911;28;20619;-75
2022/05/03 03:11:12;;;;;;;39.73;7.57;;;15.70;99.90;;;;;;5054333;28;20191;-75
2022/05/03 03:14:19;;;;;;;44.33;9.03;;;15.70;99.90;;;;;;5041769;28;20206;-75
2022/05/03 03:17:07;;;;;;;46.87;8.30;;;15.70;99.90;;;;;;5081846;28;20225;-75
2022/05/03 03:19:54;;;;;;;48.67;9.03;;;15.70;99.90;;;;;;5073869;28;20186;-75
2022/05/03 03:22:21;;;;;;;43.93;9.23;;;15.70;99.90;;;;;;5043021;28;20195;-75
2022/05/03 03:24:54;;;;;;;53.10;9.27;;;15.70;99.90;;;;;;5040870;28;20225;-75
2022/05/03 03:27:31;;;;;;;46.03;8.70;;;15.80;99.90;;;;;;5048978;28;20199;-75
2022/05/03 03:30:06;;;;;;;41.83;8.03;;;15.90;99.90;;;;;;5051231;28;20191;-75
2022/05/03 03:32:37;;;;;;;42.63;8.93;;;15.90;99.90;;;;;;5066131;28;20225;-75
2022/05/03 03:35:05;;;;;;;36.43;8.00;;;15.80;99.90;;;;;;5047522;28;20236;-75
2022/05/03 03:37:34;;;;;;;46.33;7.80;;;15.80;99.90;;;;;;5048114;28;20184;-75
2022/05/03 03:40:03;;;;;;;46.80;8.67;;;15.80;99.90;;;;;;5081171;28;20230;-75
2022/05/03 03:42:31;;;;;;;51.00;8.33;;;15.80;99.90;;;;;;5055594;28;20213;-75
2022/05/03 03:45:08;;;;;;;53.43;8.33;;;15.90;99.90;;;;;;5060392;28;20203;-76
2022/05/03 03:47:36;;;;;;;51.90;9.20;;;15.90;99.90;;;;;;5048377;28;20539;-75
2022/05/03 03:50:05;;;;;;;60.20;9.30;;;15.80;99.90;;;;;;5055785;28;20194;-75
2022/05/03 03:52:34;;;;;;;53.17;8.30;;;15.80;99.90;;;;;;5059535;28;21039;-75
2022/05/03 03:55:04;;;;;;;52.50;9.40;;;15.80;99.90;;;;;;5045481;28;20268;-75
2022/05/03 03:57:34;;;;;;;47.83;8.73;;;15.90;99.90;;;;;;5059455;28;20527;-75
2022/05/03 04:00:07;;;;;;;61.30;9.90;;;16.00;99.90;;;;;;5050030;28;20201;-75
2022/05/03 04:02:35;;;;;;;61.67;8.83;;;16.20;99.90;;;;;;5053785;28;20205;-75
2022/05/03 04:05:11;;;;;;;51.10;8.30;;;16.20;99.90;;;;;;5060854;28;20219;-75
2022/05/03 04:07:37;;;;;;;44.10;7.73;;;16.20;99.90;;;;;;5061196;28;20253;-75
2022/05/03 04:10:04;;;;;;;52.20;8.60;;;16.20;99.90;;;;;;5043710;28;20196;-75
2022/05/03 04:12:32;;;;;;;46.10;8.10;;;16.30;99.90;;;;;;5082592;28;20477;-75
2022/05/03 04:14:58;;;;;;;48.93;9.43;;;16.30;99.90;;;;;;5039492;28;20250;-75
2022/05/03 04:17:25;;;;;;;44.00;7.93;;;16.40;99.90;;;;;;5053796;28;20184;-75
2022/05/03 04:19:51;;;;;;;57.07;9.27;;;16.40;99.90;;;;;;5066490;28;20188;-74
2022/05/03 04:22:27;;;;;;;47.17;9.27;;;16.40;99.90;;;;;;5052478;28;20243;-75
2022/05/03 04:24:56;;;;;;;44.60;8.43;;;16.40;99.90;;;;;;5078774;28;20977;-75
2022/05/03 04:27:30;;;;;;;48.80;8.40;;;16.50;99.90;;;;;;5077782;28;20214;-75
2022/05/03 04:29:58;;;;;;;47.23;8.27;;;16.50;99.90;;;;;;5065972;28;20194;-75
2022/05/03 04:32:32;;;;;;;53.40;9.13;;;16.50;99.90;;;;;;5076377;28;20825;-75
2022/05/03 04:34:59;;;;;;;48.93;8.67;;;16.60;99.90;;;;;;5034134;28;20215;-75
2022/05/03 04:37:29;;;;;;;47.30;8.10;;;16.70;99.90;;;;;;5067933;28;20190;-75
2022/05/03 04:39:56;;;;;;;51.17;8.27;;;16.70;99.90;;;;;;5056966;28;20659;-75
2022/05/03 04:42:22;;;;;;;41.13;7.73;;;16.70;99.90;;;;;;5053025;28;20180;-75
2022/05/03 04:44:49;;;;;;;47.70;9.67;;;16.80;99.90;;;;;;5051392;28;20200;-75
2022/05/03 04:47:15;;;;;;;48.33;8.60;;;16.80;99.90;;;;;;5051360;28;20196;-75
2022/05/03 04:49:43;;;;;;;51.20;8.57;;;16.80;99.90;;;;;;5043931;28;20195;-75
2022/05/03 04:52:10;;;;;;;42.73;9.03;;;16.90;99.90;;;;;;5049007;28;20372;-75
2022/05/03 04:54:38;;;;;;;51.90;8.47;;;16.90;99.90;;;;;;5030431;28;20309;-75
2022/05/03 04:57:09;;;;;;;48.67;9.03;;;17.00;99.90;;;;;;5064280;28;20187;-75
2022/05/03 04:59:40;;;;;;;43.57;8.57;;;17.00;99.90;;;;;;5023769;28;20656;-75
2022/05/03 05:02:06;;;;;;;41.13;8.37;;;17.00;99.90;;;;;;5074509;28;20667;-75
2022/05/03 05:04:33;;;;;;;40.23;8.00;;;17.00;99.90;;;;;;5045768;28;20662;-75
2022/05/03 05:06:59;;;;;;;44.40;9.03;;;17.00;99.90;;;;;;5090136;28;20299;-75
2022/05/03 05:09:25;;;;;;;62.00;8.93;;;17.10;99.90;;;;;;5073341;28;20192;-75
2022/05/03 05:11:52;;;;;;;45.13;8.57;;;17.10;99.90;;;;;;5055552;28;20707;-75
2022/05/03 05:14:20;;;;;;;38.60;8.27;;;17.10;99.90;;;;;;5042559;28;20631;-75
2022/05/03 05:16:49;;;;;;;42.57;7.83;;;17.10;99.90;;;;;;5068471;28;20671;-74
2022/05/03 05:19:20;;;;;;;43.70;8.00;;;17.10;99.90;;;;;;5059816;28;20226;-75
2022/05/03 05:21:49;;;;;;;60.37;9.47;;;17.10;99.90;;;;;;5066290;28;20210;-75
2022/05/03 05:24:15;;;;;;;38.17;8.30;;;17.20;99.90;;;;;;5066026;28;20195;-75
2022/05/03 05:26:42;;;;;;;46.90;8.50;;;17.20;99.90;;;;;;5083512;28;20198;-74
2022/05/03 05:29:08;;;;;;;47.77;8.30;;;17.20;99.90;;;;;;5043741;28;20290;-75
2022/05/03 05:31:35;;;;;;;56.63;8.80;;;17.30;99.90;;;;;;5046806;28;20223;-75
2022/05/03 05:34:06;;;;;;;44.30;8.07;;;17.30;99.90;;;;;;5083898;28;20195;-74
2022/05/03 05:36:33;;;;;;;41.83;8.60;;;17.40;99.90;;;;;;5045203;28;20223;-75
2022/05/03 05:39:02;;;;;;;42.63;9.77;;;17.50;99.90;;;;;;5051875;28;20264;-74
2022/05/03 05:41:32;;;;;;;45.03;8.53;;;17.50;99.90;;;;;;5075274;28;20278;-75
2022/05/03 05:43:59;;;;;;;45.03;8.57;;;17.50;99.90;;;;;;5070417;28;20202;-75
2022/05/03 05:46:25;;;;;;;54.80;9.30;;;17.60;99.90;;;;;;5045049;28;20186;-75
2022/05/03 05:48:53;;;;;;;58.47;8.57;;;17.60;99.90;;;;;;5050781;28;20246;-75
2022/05/03 05:51:21;;;;;;;58.03;10.10;;;17.60;99.90;;;;;;5047689;28;20354;-75
2022/05/03 05:53:47;;;;;;;42.23;8.90;;;17.70;99.90;;;;;;5075837;28;20659;-75
2022/05/03 05:56:14;;;;;;;47.93;8.57;;;17.70;99.90;;;;;;5056412;28;20360;-75
2022/05/03 05:58:42;;;;;;;43.50;8.80;;;17.80;99.90;;;;;;5042335;28;20195;-75
2022/05/03 06:01:09;;;;;;;46.43;8.13;;;17.80;99.90;;;;;;5051157;28;20521;-75
2022/05/03 06:03:37;;;;;;;47.93;8.83;;;17.90;99.90;;;;;;5063210;28;20195;-75
2022/05/03 06:06:04;;;;;;;53.27;9.23;;;17.90;99.90;;;;;;5047908;28;20344;-75
2022/05/03 06:08:31;;;;;;;42.43;8.53;;;17.90;99.90;;;;;;5045986;28;20195;-75
2022/05/03 06:10:59;;;;;;;41.63;8.80;;;18.00;99.90;;;;;;5040267;28;20270;-74
2022/05/03 06:13:27;;;;;;;45.40;8.33;;;18.10;99.90;;;;;;5029763;28;20195;-74
2022/05/03 06:15:54;;;;;;;39.50;8.43;;;18.10;99.90;;;;;;5041820;28;20225;-74
2022/05/03 06:18:20;;;;;;;42.33;8.93;;;18.20;99.90;;;;;;5038432;28;22671;-75
2022/05/03 06:20:46;;;;;;;44.97;7.77;;;18.30;99.90;;;;;;5037528;28;20192;-74
2022/05/03 06:23:13;;;;;;;46.23;8.77;;;18.30;99.90;;;;;;5059218;28;20671;-74
2022/05/03 06:25:39;;;;;;;50.27;10.77;;;18.40;99.90;;;;;;5043885;28;20191;-74
2022/05/03 06:28:05;;;;;;;56.17;9.57;;;18.40;99.90;;;;;;5040924;28;20191;-74
2022/05/03 06:30:35;;;;;;;50.53;10.00;;;18.50;99.90;;;;;;5054143;28;20276;-74
2022/05/03 06:33:01;;;;;;;61.00;9.93;;;18.60;99.90;;;;;;5058809;28;20912;-74
2022/05/03 06:35:29;;;;;;;51.73;9.67;;;18.80;99.90;;;;;;5041564;28;20951;-74
2022/05/03 06:37:56;;;;;;;45.33;9.50;;;18.90;99.90;;;;;;5042468;28;20191;-74
2022/05/03 06:40:24;;;;;;;48.90;9.40;;;19.00;99.90;;;;;;5054199;28;20190;-74
2022/05/03 06:42:54;;;;;;;48.87;9.97;;;19.00;99.90;;;;;;5038903;28;20210;-74
2022/05/03 06:45:21;;;;;;;51.07;9.87;;;19.10;99.90;;;;;;5037584;28;20213;-74
2022/05/03 06:47:50;;;;;;;47.70;8.57;;;19.10;99.90;;;;;;5043617;28;20199;-74
2022/05/03 06:50:25;;;;;;;37.07;8.77;;;19.20;99.90;;;;;;5031155;28;20191;-74
2022/05/03 06:52:51;;;;;;;36.53;8.60;;;19.20;99.90;;;;;;5024155;28;20222;-74
2022/05/03 06:55:18;;;;;;;47.17;9.50;;;19.30;99.90;;;;;;5044356;28;20299;-74
2022/05/03 06:57:45;;;;;;;47.57;8.87;;;19.40;99.90;;;;;;5025849;28;20724;-74
2022/05/03 07:00:14;;;;;;;49.03;9.47;;;19.50;99.90;;;;;;5027741;28;20202;-74
2022/05/03 07:02:42;;;;;;;51.00;9.47;;;19.50;99.90;;;;;;5032773;28;20188;-73
2022/05/03 07:05:09;;;;;;;48.80;9.50;;;19.70;99.90;;;;;;5059200;28;20206;-74
2022/05/03 07:07:39;;;;;;;48.93;8.63;;;19.80;99.90;;;;;;5026164;28;20668;-74
2022/05/03 07:10:08;;;;;;;61.37;9.97;;;19.80;99.90;;;;;;5046281;28;20195;-74
2022/05/03 07:12:35;;;;;;;45.77;8.87;;;19.90;99.90;;;;;;5047239;28;20565;-74
2022/05/03 07:15:08;;;;;;;49.47;9.13;;;20.00;99.90;;;;;;5074897;28;20226;-74
2022/05/03 07:23:04;;;;;;;40.03;9.70;;;20.20;99.90;;;;;;5058245;28;20198;-75
2022/05/03 07:25:32;;;;;;;55.93;9.60;;;20.30;99.90;;;;;;5033762;28;20282;-74
2022/05/03 07:27:59;;;;;;;45.00;9.50;;;20.40;99.90;;;;;;5059931;28;20189;-73
2022/05/03 07:30:25;;;;;;;52.17;9.80;;;20.40;99.90;;;;;;5023498;28;20231;-74
2022/05/03 07:32:52;;;;;;;57.20;10.07;;;20.50;99.90;;;;;;5055898;28;20270;-74
2022/05/03 07:35:21;;;;;;;47.13;10.07;;;20.50;99.90;;;;;;5025552;28;20219;-74
2022/05/03 07:37:49;;;;;;;50.53;10.20;;;20.60;99.90;;;;;;5058828;28;20710;-74
2022/05/03 07:40:18;;;;;;;47.80;10.47;;;20.60;99.90;;;;;;5027819;28;20192;-74
2022/05/03 07:42:47;;;;;;;57.77;10.80;;;20.70;99.90;;;;;;5043928;28;20199;-74
2022/05/03 07:45:15;;;;;;;53.83;10.37;;;20.80;99.90;;;;;;5058961;28;20202;-74
2022/05/03 07:47:42;;;;;;;41.50;9.90;;;21.00;99.90;;;;;;5033313;28;20322;-75
2022/05/03 07:50:09;;;;;;;49.83;11.80;;;21.10;99.90;;;;;;5029123;28;20585;-75
2022/05/03 07:52:40;;;;;;;42.90;11.93;;;21.10;99.90;;;;;;5058424;28;20192;-74
2022/05/03 07:55:08;;;;;;;46.47;10.63;;;21.20;99.90;;;;;;5025538;28;20219;-74
2022/05/03 07:57:36;;;;;;;59.70;10.70;;;21.20;99.90;;;;;;5031242;28;20185;-74
2022/05/03 08:00:07;;;;;;;48.03;10.23;;;21.30;99.90;;;;;;5030796;28;20223;-74
2022/05/03 08:02:34;;;;;;;53.70;11.50;;;21.30;99.90;;;;;;5057073;28;20191;-74
2022/05/03 08:05:00;;;;;;;54.83;11.03;;;21.40;99.90;;;;;;5028227;28;20222;-74
2022/05/03 08:07:27;;;;;;;45.17;9.93;;;21.50;99.90;;;;;;5030926;28;20265;-74
2022/05/03 08:09:54;;;;;;;49.33;9.50;;;21.60;99.90;;;;;;5057316;28;20195;-74
2022/05/03 08:12:22;;;;;;;47.07;10.33;;;21.60;99.90;;;;;;5032305;28;20656;-74
2022/05/03 08:14:48;;;;;;;50.37;10.83;;;21.70;99.90;;;;;;5041036;28;20216;-75
2022/05/03 08:17:14;;;;;;;42.70;10.60;;;21.80;99.90;;;;;;5062206;28;20196;-74
2022/05/03 08:19:41;;;;;;;49.13;10.83;;;21.90;99.90;;;;;;5043723;28;20192;-74
2022/05/03 08:22:07;;;;;;;43.73;10.37;;;21.90;99.90;;;;;;5034529;28;20277;-74
2022/05/03 08:24:34;;;;;;;37.37;10.80;;;22.00;99.90;;;;;;5028380;28;20667;-74
2022/05/03 08:27:02;;;;;;;33.83;10.60;;;22.10;99.90;;;;;;5033409;28;20753;-74
2022/05/03 08:29:33;;;;;;;38.23;11.07;;;22.20;99.90;;;;;;5027484;28;20230;-75
2022/05/03 08:32:04;;;;;;;52.13;11.63;;;22.20;99.90;;;;;;5029943;28;20222;-74
2022/05/03 08:34:32;;;;;;;40.50;10.93;;;22.30;99.90;;;;;;5030848;28;20202;-73
2022/05/03 08:42:31;;;;;;;45.50;11.80;;;22.40;99.90;;;;;;5028284;28;20195;-74
2022/05/03 08:45:02;;;;;;;48.70;11.20;;;22.50;99.90;;;;;;5027857;28;20221;-73
2022/05/03 08:47:31;;;;;;;45.53;12.23;;;22.50;99.90;;;;;;5028411;28;20275;-74
2022/05/03 08:50:03;;;;;;;47.28;11.70;;;22.60;99.90;;;;;;4988948;28;20766;-75
2022/05/03 08:52:51;;;;;;;43.37;11.23;;;22.70;99.90;;;;;;4983918;28;20201;-73
2022/05/03 08:55:19;;;;;;;34.85;11.45;;;22.80;99.90;;;;;;4989999;28;20637;-73
2022/05/03 08:57:47;;;;;;;40.72;11.40;;;22.90;99.90;;;;;;4974507;28;20686;-74
2022/05/03 09:00:22;;;;;;;38.33;10.32;;;23.00;99.90;;;;;;4978948;28;20185;-73
2022/05/03 09:02:55;;;;;;;38.60;11.80;;;23.00;99.90;;;;;;4994216;28;20207;-73
2022/05/03 09:05:25;;;;;;;41.70;10.93;;;23.10;99.90;;;;;;4992705;28;20220;-74
2022/05/03 09:08:00;;;;;;;42.03;11.38;;;23.20;99.90;;;;;;4973641;28;20225;-75
2022/05/03 09:10:36;;;;;;;42.08;11.13;;;23.40;99.90;;;;;;4985080;28;20185;-75
2022/05/03 09:13:24;;;;;;;37.22;10.73;;;23.50;99.90;;;;;;4996812;28;20185;-74
2022/05/03 09:15:57;;;;;;;36.85;11.48;;;23.50;99.90;;;;;;5010514;28;20212;-75
2022/05/03 09:18:33;;;;;;;39.30;10.93;;;23.50;99.90;;;;;;5015483;28;20224;-74
2022/05/03 09:24:01;;;;;;;45.97;10.65;;;23.50;99.90;;;;;;4983671;28;20571;-74
2022/05/03 09:26:30;;;;;;;48.13;10.77;;;23.60;99.90;;;;;;5016920;28;20192;-75
2022/05/03 09:29:09;;;;;;;43.65;10.07;;;23.80;99.90;;;;;;4979026;28;20308;-74
2022/05/03 09:31:46;;;;;;;50.50;11.07;;;24.00;99.90;;;;;;5004842;28;20213;-74
2022/05/03 09:34:30;;;;;;;55.00;11.23;;;24.10;99.90;;;;;;4977806;28;20223;-74
2022/05/03 09:37:02;;;;;;;54.65;10.93;;;24.20;99.90;;;;;;4992111;28;20324;-74
2022/05/03 09:39:41;;;;;;;48.97;11.70;;;24.10;99.90;;;;;;4995176;28;20216;-74
2022/05/03 09:42:14;;;;;;;44.78;11.27;;;24.10;99.90;;;;;;4982725;28;20295;-73
2022/05/03 09:45:02;;;;;;;46.53;11.38;;;24.20;99.90;;;;;;4973530;28;20193;-74
2022/05/03 09:47:51;;;;;;;48.47;10.82;;;24.50;99.90;;;;;;4992286;28;20308;-74
2022/05/03 09:50:44;;;;;;;49.75;11.40;;;24.50;99.90;;;;;;4984961;28;20292;-74
2022/05/03 09:53:21;;;;;;;56.58;11.15;;;24.70;99.90;;;;;;4965154;28;20228;-74
2022/05/03 09:55:49;;;;;;;43.05;10.65;;;24.70;99.90;;;;;;5005317;28;20220;-74
2022/05/03 09:58:19;;;;;;;52.35;11.85;;;24.70;99.90;;;;;;4971001;28;20181;-73
2022/05/03 10:00:50;;;;;;;50.17;11.20;;;24.70;99.90;;;;;;4952702;28;20191;-73
2022/05/03 10:03:20;;;;;;;45.53;11.43;;;24.90;99.90;;;;;;4966204;28;20197;-73
2022/05/03 10:05:49;;;;;;;61.88;10.82;;;24.90;99.90;;;;;;4987615;28;20197;-73
2022/05/03 10:08:22;;;;;;;53.25;12.07;;;25.00;99.90;;;;;;4974950;28;20301;-73
2022/05/03 10:10:56;;;;;;;48.40;11.50;;;25.10;99.90;;;;;;4976917;28;20272;-73
2022/05/03 10:13:22;;;;;;;43.00;11.60;;;25.00;99.90;;;;;;4957428;28;20217;-74
2022/05/03 10:21:36;;;;;;;45.80;11.95;;;25.00;99.90;;;;;;4978398;28;20193;-74
2022/05/03 10:24:06;;;;;;;50.63;12.93;;;25.00;99.90;;;;;;4971393;28;20205;-73
2022/05/03 10:27:06;;;;;;;47.63;12.95;;;25.00;99.90;;;;;;4999951;28;20185;-73
2022/05/03 10:29:37;;;;;;;42.67;13.07;;;25.00;99.90;;;;;;5023447;28;20201;-73
2022/05/03 10:32:20;;;;;;;42.53;13.27;;;25.00;99.90;;;;;;4989346;28;20288;-73
2022/05/03 10:34:56;;;;;;;43.25;12.73;;;24.90;99.90;;;;;;4989320;28;20216;-73
2022/05/03 10:37:36;;;;;;;38.67;11.75;;;24.90;99.90;;;;;;5000381;28;20216;-73
2022/05/03 10:40:10;;;;;;;34.80;11.85;;;24.80;99.90;;;;;;4999790;28;20228;-72
2022/05/03 10:42:37;;;;;;;52.05;13.93;;;24.70;99.90;;;;;;4986243;28;20176;-73
2022/05/03 10:45:12;;;;;;;30.63;12.75;;;24.70;99.90;;;;;;4982330;28;20204;-73
